createdAt,value
2016-09-04T00:00:15.163Z,99.99
2016-09-04T00:01:15.157Z,99.99
2016-09-04T00:02:15.128Z,99.99
2016-09-04T00:03:15.133Z,99.99
2016-09-04T00:04:15.101Z,99.99
2016-09-04T00:05:15.105Z,99.99
2016-09-04T00:06:15.102Z,99.99
2016-09-04T00:07:15.093Z,99.99
2016-09-04T00:08:15.062Z,99.99
2016-09-04T00:09:15.053Z,99.99
2016-09-04T00:10:15.043Z,99.99
2016-09-04T00:11:15.055Z,99.99
2016-09-04T00:12:15.030Z,99.99
2016-09-04T00:13:15.032Z,99.99
2016-09-04T00:14:15.003Z,99.99
2016-09-04T00:15:15.008Z,99.99
2016-09-04T00:16:14.997Z,99.99
2016-09-04T00:17:14.989Z,99.99
2016-09-04T00:18:14.964Z,99.99
2016-09-04T00:19:14.969Z,99.99
2016-09-04T00:20:14.963Z,99.99
2016-09-04T00:21:14.940Z,99.99
2016-09-04T00:22:14.925Z,99.99
2016-09-04T00:23:14.922Z,99.99
2016-09-04T00:24:14.924Z,99.99
2016-09-04T00:25:14.908Z,99.99
2016-09-04T00:26:14.886Z,99.99
2016-09-04T00:27:14.876Z,99.99
2016-09-04T00:28:14.868Z,99.99
2016-09-04T00:29:14.861Z,99.99
2016-09-04T00:30:14.860Z,99.99
2016-09-04T00:31:14.846Z,99.99
2016-09-04T00:32:14.846Z,99.99
2016-09-04T00:33:14.837Z,99.99
2016-09-04T00:34:14.814Z,99.99
2016-09-04T00:35:14.794Z,99.99
2016-09-04T00:36:14.793Z,99.99
2016-09-04T00:37:14.798Z,99.99
2016-09-04T00:38:14.788Z,99.99
2016-09-04T00:39:14.771Z,99.99
2016-09-04T00:40:14.760Z,99.99
2016-09-04T00:41:14.736Z,99.99
2016-09-04T00:42:14.726Z,99.99
2016-09-04T00:43:14.723Z,99.99
2016-09-04T00:44:14.706Z,99.99
2016-09-04T00:45:14.716Z,99.99
2016-09-04T00:46:14.707Z,99.99
2016-09-04T00:47:14.684Z,99.99
2016-09-04T00:48:14.669Z,99.99
2016-09-04T00:49:14.671Z,99.99
2016-09-04T00:50:14.809Z,99.99
2016-09-04T00:51:14.643Z,99.99
2016-09-04T00:52:14.629Z,99.99
2016-09-04T00:53:14.618Z,99.99
2016-09-04T00:54:14.615Z,99.99
2016-09-04T00:55:14.614Z,99.99
2016-09-04T00:56:14.616Z,99.99
2016-09-04T00:57:14.586Z,99.99
2016-09-04T00:58:14.570Z,99.99
2016-09-04T00:59:14.582Z,99.99
2016-09-04T01:00:14.552Z,99.99
2016-09-04T01:01:14.555Z,99.99
2016-09-04T01:02:14.539Z,99.99
2016-09-04T01:03:14.528Z,99.99
2016-09-04T01:04:14.528Z,99.99
2016-09-04T01:05:14.529Z,99.99
2016-09-04T01:06:14.512Z,99.99
2016-09-04T01:07:14.486Z,99.99
2016-09-04T01:08:14.491Z,99.99
2016-09-04T01:09:14.481Z,99.99
2016-09-04T01:10:14.475Z,99.99
2016-09-04T01:11:14.449Z,99.99
2016-09-04T01:12:14.446Z,99.99
2016-09-04T01:13:14.448Z,99.99
2016-09-04T01:14:14.420Z,99.99
2016-09-04T01:15:14.425Z,99.99
2016-09-04T01:16:14.419Z,99.99
2016-09-04T01:17:14.400Z,99.99
2016-09-04T01:18:14.379Z,99.99
2016-09-04T01:19:14.392Z,99.99
2016-09-04T01:20:14.384Z,99.99
2016-09-04T01:21:14.353Z,99.99
2016-09-04T01:22:14.358Z,99.99
2016-09-04T01:23:14.351Z,99.99
2016-09-04T01:24:14.340Z,99.99
2016-09-04T01:25:14.330Z,99.99
2016-09-04T01:26:14.320Z,99.99
2016-09-04T01:27:14.299Z,99.99
2016-09-04T01:28:14.311Z,99.99
2016-09-04T01:29:14.276Z,99.99
2016-09-04T01:30:14.276Z,99.99
2016-09-04T01:31:14.272Z,99.99
2016-09-04T01:32:14.253Z,99.99
2016-09-04T01:33:14.240Z,99.99
2016-09-04T01:34:14.245Z,99.99
2016-09-04T01:35:14.227Z,99.99
2016-09-04T01:36:14.219Z,99.99
2016-09-04T01:37:14.223Z,99.99
2016-09-04T01:38:14.215Z,99.99
2016-09-04T01:39:14.205Z,99.99
2016-09-04T01:40:14.179Z,99.99
2016-09-04T01:41:14.187Z,99.99
2016-09-04T01:42:14.176Z,99.99
2016-09-04T01:43:14.153Z,99.99
2016-09-04T01:44:14.138Z,99.99
2016-09-04T01:45:14.128Z,99.99
2016-09-04T01:46:14.130Z,99.99
2016-09-04T01:47:14.116Z,99.99
2016-09-04T01:48:14.100Z,99.99
2016-09-04T01:49:14.091Z,99.99
2016-09-04T01:50:14.100Z,99.99
2016-09-04T01:51:14.078Z,99.99
2016-09-04T01:52:14.067Z,99.99
2016-09-04T01:53:14.074Z,99.99
2016-09-04T01:54:14.050Z,99.99
2016-09-04T01:55:14.047Z,99.99
2016-09-04T01:56:14.046Z,99.99
2016-09-04T01:57:14.015Z,99.99
2016-09-04T01:58:14.027Z,99.99
2016-09-04T01:59:13.996Z,99.99
2016-09-04T02:00:13.995Z,99.99
2016-09-04T02:01:13.993Z,99.99
2016-09-04T02:02:13.967Z,99.99
2016-09-04T02:03:13.973Z,99.99
2016-09-04T02:04:13.956Z,99.99
2016-09-04T02:05:13.953Z,99.99
2016-09-04T02:06:13.943Z,99.99
2016-09-04T02:07:13.933Z,99.99
2016-09-04T02:08:13.917Z,99.99
2016-09-04T02:09:13.914Z,99.99
2016-09-04T02:10:13.898Z,99.99
2016-09-04T02:11:13.891Z,99.99
2016-09-04T02:12:13.872Z,99.99
2016-09-04T02:13:13.881Z,99.99
2016-09-04T02:14:13.872Z,99.99
2016-09-04T02:15:13.856Z,99.99
2016-09-04T02:16:13.851Z,99.99
2016-09-04T02:17:13.829Z,99.99
2016-09-04T02:18:13.821Z,99.99
2016-09-04T02:19:13.823Z,99.99
2016-09-04T02:20:13.807Z,99.99
2016-09-04T02:21:13.803Z,99.99
2016-09-04T02:22:13.799Z,99.99
2016-09-04T02:23:13.771Z,99.99
2016-09-04T02:24:13.760Z,99.99
2016-09-04T02:25:13.766Z,99.99
2016-09-04T02:26:13.747Z,99.99
2016-09-04T02:27:13.728Z,99.99
2016-09-04T02:28:13.734Z,99.99
2016-09-04T02:29:13.724Z,99.99
2016-09-04T02:30:13.714Z,99.99
2016-09-04T02:31:13.691Z,99.99
2016-09-04T02:32:13.683Z,99.99
2016-09-04T02:33:13.685Z,99.99
2016-09-04T02:34:13.683Z,99.99
2016-09-04T02:35:13.663Z,99.99
2016-09-04T02:36:13.641Z,99.99
2016-09-04T02:37:13.637Z,99.99
2016-09-04T02:38:13.632Z,99.99
2016-09-04T02:39:13.617Z,99.99
2016-09-04T02:40:13.613Z,99.99
2016-09-04T02:41:13.585Z,99.99
2016-09-04T02:42:13.594Z,99.99
2016-09-04T02:43:13.562Z,99.99
2016-09-04T02:44:13.561Z,99.99
2016-09-04T02:45:13.544Z,99.99
2016-09-04T02:46:13.531Z,99.99
2016-09-04T02:47:13.524Z,99.99
2016-09-04T02:48:13.534Z,99.99
2016-09-04T02:49:13.513Z,99.99
2016-09-04T02:50:13.513Z,99.99
2016-09-04T02:51:13.495Z,99.99
2016-09-04T02:52:13.496Z,99.99
2016-09-04T02:53:13.470Z,99.99
2016-09-04T02:54:13.473Z,99.99
2016-09-04T02:55:13.441Z,99.99
2016-09-04T02:56:13.439Z,99.99
2016-09-04T02:57:13.435Z,99.99
2016-09-04T02:58:13.433Z,99.99
2016-09-04T02:59:13.408Z,99.99
2016-09-04T03:00:13.410Z,99.99
2016-09-04T03:01:13.394Z,99.99
2016-09-04T03:02:13.379Z,99.99
2016-09-04T03:03:13.377Z,99.99
2016-09-04T03:04:13.357Z,99.99
2016-09-04T03:05:13.355Z,99.99
2016-09-04T03:06:13.346Z,99.99
2016-09-04T03:07:13.329Z,99.99
2016-09-04T03:08:13.317Z,99.99
2016-09-04T03:09:13.306Z,99.99
2016-09-04T03:10:13.310Z,99.99
2016-09-04T03:11:13.287Z,99.99
2016-09-04T03:12:13.268Z,99.99
2016-09-04T03:13:13.263Z,99.99
2016-09-04T03:14:13.270Z,99.99
2016-09-04T03:15:13.253Z,99.99
2016-09-04T03:16:13.227Z,99.99
2016-09-04T03:17:13.239Z,99.99
2016-09-04T03:18:13.210Z,99.99
2016-09-04T03:19:13.209Z,99.99
2016-09-04T03:20:13.203Z,99.99
2016-09-04T03:21:13.178Z,99.99
2016-09-04T03:22:13.169Z,99.99
2016-09-04T03:23:13.178Z,99.99
2016-09-04T03:24:13.151Z,99.99
2016-09-04T03:25:13.156Z,99.99
2016-09-04T03:26:13.138Z,99.99
2016-09-04T03:27:13.112Z,99.99
2016-09-04T03:28:13.112Z,99.99
2016-09-04T03:29:13.109Z,99.99
2016-09-04T03:30:13.097Z,99.99
2016-09-04T03:31:13.088Z,99.99
2016-09-04T03:32:13.083Z,99.99
2016-09-04T03:33:13.091Z,99.99
2016-09-04T03:34:13.061Z,99.99
2016-09-04T03:35:13.051Z,99.99
2016-09-04T03:36:13.033Z,99.99
2016-09-04T03:37:13.027Z,99.99
2016-09-04T03:38:13.003Z,99.99
2016-09-04T03:39:12.999Z,99.99
2016-09-04T03:40:12.987Z,99.99
2016-09-04T03:41:12.972Z,99.99
2016-09-04T03:42:12.960Z,99.99
2016-09-04T03:43:12.955Z,99.99
2016-09-04T03:44:12.939Z,99.99
2016-09-04T03:45:12.951Z,99.99
2016-09-04T03:46:12.921Z,99.99
2016-09-04T03:47:12.926Z,99.99
2016-09-04T03:48:12.921Z,99.99
2016-09-04T03:49:12.910Z,99.99
2016-09-04T03:50:12.901Z,99.99
2016-09-04T03:51:12.882Z,99.99
2016-09-04T03:52:12.858Z,99.99
2016-09-04T03:53:12.862Z,99.99
2016-09-04T03:54:12.839Z,99.99
2016-09-04T03:55:12.842Z,99.99
2016-09-04T03:56:12.834Z,99.99
2016-09-04T03:57:12.816Z,99.99
2016-09-04T03:58:12.806Z,99.99
2016-09-04T03:59:12.801Z,99.99
2016-09-04T04:00:12.787Z,99.99
2016-09-04T04:01:12.781Z,99.99
2016-09-04T04:02:12.775Z,99.99
2016-09-04T04:03:12.762Z,99.99
2016-09-04T04:04:12.760Z,99.99
2016-09-04T04:05:12.751Z,99.99
2016-09-04T04:06:12.732Z,99.99
2016-09-04T04:07:12.714Z,99.99
2016-09-04T04:08:12.720Z,99.99
2016-09-04T04:09:12.695Z,99.99
2016-09-04T04:10:12.690Z,99.99
2016-09-04T04:11:12.669Z,99.99
2016-09-04T04:12:12.670Z,99.99
2016-09-04T04:13:12.653Z,99.99
2016-09-04T04:14:12.659Z,99.99
2016-09-04T04:15:12.649Z,99.99
2016-09-04T04:16:12.620Z,99.99
2016-09-04T04:17:12.630Z,99.99
2016-09-04T04:18:12.603Z,99.99
2016-09-04T04:19:12.603Z,99.99
2016-09-04T04:20:12.585Z,99.99
2016-09-04T04:21:12.586Z,99.99
2016-09-04T04:22:12.573Z,99.99
2016-09-04T04:23:12.570Z,99.99
2016-09-04T04:24:12.543Z,99.99
2016-09-04T04:25:12.542Z,99.99
2016-09-04T04:26:12.533Z,99.99
2016-09-04T04:27:12.535Z,99.99
2016-09-04T04:28:12.498Z,99.99
2016-09-04T04:29:12.488Z,99.99
2016-09-04T04:30:12.503Z,99.99
2016-09-04T04:31:12.488Z,99.99
2016-09-04T04:32:12.471Z,99.99
2016-09-04T04:33:12.473Z,99.99
2016-09-04T04:34:12.437Z,99.99
2016-09-04T04:35:12.433Z,99.99
2016-09-04T04:36:12.430Z,99.99
2016-09-04T04:37:12.426Z,99.99
2016-09-04T04:38:12.410Z,99.99
2016-09-04T04:39:12.407Z,99.99
2016-09-04T04:40:12.389Z,99.99
2016-09-04T04:41:12.373Z,99.99
2016-09-04T04:42:12.376Z,99.99
2016-09-04T04:43:12.365Z,99.99
2016-09-04T04:44:12.336Z,99.99
2016-09-04T04:45:12.326Z,99.99
2016-09-04T04:46:12.338Z,99.99
2016-09-04T04:47:12.311Z,99.99
2016-09-04T04:48:12.320Z,99.99
2016-09-04T04:49:12.297Z,99.99
2016-09-04T04:50:12.276Z,99.99
2016-09-04T04:51:12.278Z,99.99
2016-09-04T04:52:12.256Z,99.99
2016-09-04T04:53:12.313Z,99.99
2016-09-04T04:54:12.230Z,99.99
2016-09-04T04:55:12.233Z,99.99
2016-09-04T04:56:12.233Z,99.99
2016-09-04T04:57:12.220Z,99.99
2016-09-04T04:58:12.204Z,99.99
2016-09-04T04:59:12.918Z,99.99
2016-09-04T05:00:12.183Z,99.99
2016-09-04T05:01:12.182Z,99.99
2016-09-04T05:02:12.148Z,99.99
2016-09-04T05:03:12.152Z,99.99
2016-09-04T05:04:12.129Z,99.99
2016-09-04T05:05:12.129Z,99.99
2016-09-04T05:06:12.126Z,99.99
2016-09-04T05:07:12.104Z,99.99
2016-09-04T05:08:12.085Z,99.99
2016-09-04T05:09:12.097Z,99.99
2016-09-04T05:10:12.066Z,99.99
2016-09-04T05:11:12.070Z,99.99
2016-09-04T05:12:12.067Z,99.99
2016-09-04T05:13:12.033Z,99.99
2016-09-04T05:14:12.025Z,99.99
2016-09-04T05:15:12.028Z,99.99
2016-09-04T05:16:12.001Z,99.99
2016-09-04T05:17:11.993Z,99.99
2016-09-04T05:18:11.989Z,99.99
2016-09-04T05:19:11.990Z,99.99
2016-09-04T05:20:11.972Z,99.99
2016-09-04T05:21:11.972Z,99.99
2016-09-04T05:22:11.962Z,99.99
2016-09-04T05:23:11.940Z,99.99
2016-09-04T05:24:11.940Z,99.99
2016-09-04T05:25:11.923Z,99.99
2016-09-04T05:26:11.919Z,99.99
2016-09-04T05:27:11.898Z,99.99
2016-09-04T05:28:11.884Z,99.99
2016-09-04T05:29:11.880Z,99.99
2016-09-04T05:30:11.856Z,99.99
2016-09-04T05:31:11.867Z,99.99
2016-09-04T05:32:11.836Z,99.99
2016-09-04T05:33:11.841Z,99.99
2016-09-04T05:34:11.836Z,99.99
2016-09-04T05:35:11.818Z,99.99
2016-09-04T05:36:11.802Z,99.99
2016-09-04T05:37:11.788Z,99.99
2016-09-04T05:38:11.786Z,99.99
2016-09-04T05:39:11.784Z,99.99
2016-09-04T05:40:11.758Z,99.99
2016-09-04T05:41:11.755Z,99.99
2016-09-04T05:42:11.731Z,99.99
2016-09-04T05:43:11.742Z,99.99
2016-09-04T05:44:11.725Z,99.99
2016-09-04T05:45:11.706Z,99.99
2016-09-04T05:46:11.702Z,99.99
2016-09-04T05:47:11.680Z,99.99
2016-09-04T05:48:11.682Z,99.99
2016-09-04T05:49:11.663Z,99.99
2016-09-04T05:50:11.664Z,99.99
2016-09-04T05:51:11.650Z,99.99
2016-09-04T05:52:11.641Z,99.99
2016-09-04T05:53:11.681Z,99.99
2016-09-04T05:54:11.626Z,99.99
2016-09-04T05:55:11.618Z,99.99
2016-09-04T05:56:11.590Z,99.99
2016-09-04T05:57:11.595Z,99.99
2016-09-04T05:58:11.565Z,99.99
2016-09-04T05:59:11.554Z,99.99
2016-09-04T06:00:11.567Z,99.99
2016-09-04T06:01:11.557Z,99.99
2016-09-04T06:02:11.526Z,99.99
2016-09-04T06:03:11.518Z,99.99
2016-09-04T06:04:11.515Z,99.99
2016-09-04T06:05:11.512Z,99.99
2016-09-04T06:06:11.490Z,99.99
2016-09-04T06:07:11.492Z,99.99
2016-09-04T06:08:11.484Z,99.99
2016-09-04T06:09:11.483Z,99.99
2016-09-04T06:10:11.456Z,99.99
2016-09-04T06:11:11.447Z,99.99
2016-09-04T06:12:11.453Z,99.99
2016-09-04T06:13:11.431Z,99.99
2016-09-04T06:14:11.413Z,99.99
2016-09-04T06:15:11.420Z,99.99
2016-09-04T06:16:11.394Z,99.99
2016-09-04T06:17:11.400Z,99.99
2016-09-04T06:18:11.391Z,99.99
2016-09-04T06:19:11.380Z,99.99
2016-09-04T06:20:11.367Z,99.99
2016-09-04T06:21:11.349Z,99.99
2016-09-04T06:22:11.351Z,99.99
2016-09-04T06:23:11.345Z,99.99
2016-09-04T06:24:11.330Z,99.99
2016-09-04T06:25:11.321Z,99.99
2016-09-04T06:26:11.317Z,99.99
2016-09-04T06:27:11.294Z,99.99
2016-09-04T06:28:11.294Z,99.99
2016-09-04T06:29:11.290Z,99.99
2016-09-04T06:30:11.287Z,99.99
2016-09-04T06:31:11.262Z,99.99
2016-09-04T06:32:11.250Z,99.99
2016-09-04T06:33:11.242Z,99.99
2016-09-04T06:34:11.254Z,99.99
2016-09-04T06:35:11.230Z,99.99
2016-09-04T06:36:11.222Z,99.99
2016-09-04T06:37:11.220Z,99.99
2016-09-04T06:38:11.218Z,99.99
2016-09-04T06:39:11.197Z,99.99
2016-09-04T06:40:11.181Z,99.99
2016-09-04T06:41:11.198Z,99.99
2016-09-04T06:42:11.171Z,99.99
2016-09-04T06:43:11.162Z,99.99
2016-09-04T06:44:11.160Z,99.99
2016-09-04T06:45:11.139Z,99.99
2016-09-04T06:46:11.129Z,99.99
2016-09-04T06:47:11.128Z,99.99
2016-09-04T06:48:11.111Z,99.99
2016-09-04T06:49:11.102Z,99.99
2016-09-04T06:50:11.114Z,99.99
2016-09-04T06:51:11.093Z,99.99
2016-09-04T06:52:11.090Z,99.99
2016-09-04T06:53:11.076Z,99.99
2016-09-04T06:54:11.081Z,99.99
2016-09-04T06:55:11.053Z,99.99
2016-09-04T06:56:11.045Z,99.99
2016-09-04T06:57:11.043Z,99.99
2016-09-04T06:58:11.029Z,99.99
2016-09-04T06:59:11.034Z,99.99
2016-09-04T07:00:11.031Z,99.99
2016-09-04T07:01:11.012Z,99.99
2016-09-04T07:02:11.003Z,99.99
2016-09-04T07:03:10.995Z,99.99
2016-09-04T07:04:10.982Z,99.99
2016-09-04T07:05:10.972Z,99.99
2016-09-04T07:06:10.963Z,99.99
2016-09-04T07:07:10.965Z,99.99
2016-09-04T07:08:10.969Z,99.99
2016-09-04T07:09:10.947Z,99.99
2016-09-04T07:10:10.932Z,99.99
2016-09-04T07:11:10.928Z,99.69
2016-09-04T07:12:10.928Z,99.6
2016-09-04T07:13:10.912Z,99.99
2016-09-04T07:14:10.896Z,99.46
2016-09-04T07:15:10.910Z,99.13
2016-09-04T07:16:10.901Z,99.75
2016-09-04T07:17:10.886Z,99.89
2016-09-04T07:18:10.884Z,99.79
2016-09-04T07:19:10.862Z,99.22
2016-09-04T07:20:10.855Z,99.22
2016-09-04T07:21:10.853Z,99.13
2016-09-04T07:22:10.827Z,99.51
2016-09-04T07:23:10.820Z,98.94
2016-09-04T07:24:10.832Z,99.03
2016-09-04T07:25:10.816Z,99.32
2016-09-04T07:26:10.808Z,98.94
2016-09-04T07:27:10.785Z,98.94
2016-09-04T07:28:10.789Z,98.51
2016-09-04T07:29:10.781Z,98.79
2016-09-04T07:30:10.766Z,98.79
2016-09-04T07:31:10.757Z,98.36
2016-09-04T07:32:10.761Z,98.65
2016-09-04T07:33:10.733Z,98.08
2016-09-04T07:34:10.732Z,98.08
2016-09-04T07:35:10.728Z,97.94
2016-09-04T07:36:10.729Z,98.18
2016-09-04T07:37:10.702Z,97.41
2016-09-04T07:38:10.705Z,97.7
2016-09-04T07:39:10.684Z,97.32
2016-09-04T07:40:10.687Z,97.41
2016-09-04T07:41:10.675Z,97.03
2016-09-04T07:42:10.665Z,96.56
2016-09-04T07:43:10.660Z,96.89
2016-09-04T07:44:10.665Z,96.8
2016-09-04T07:45:10.649Z,96.46
2016-09-04T07:46:10.649Z,96.03
2016-09-04T07:47:10.635Z,95.89
2016-09-04T07:48:10.632Z,96.17
2016-09-04T07:49:10.627Z,95.51
2016-09-04T07:50:10.604Z,95.89
2016-09-04T07:51:10.590Z,95.51
2016-09-04T07:52:10.582Z,95.36
2016-09-04T07:53:10.582Z,95.36
2016-09-04T07:54:10.587Z,95.27
2016-09-04T07:55:10.572Z,95.22
2016-09-04T07:56:10.548Z,94.89
2016-09-04T07:57:10.564Z,94.79
2016-09-04T07:58:10.547Z,94.84
2016-09-04T07:59:10.546Z,94.46
2016-09-04T08:00:10.541Z,94.65
2016-09-04T08:01:10.512Z,93.98
2016-09-04T08:02:10.505Z,93.51
2016-09-04T08:03:10.522Z,93.65
2016-09-04T08:04:10.489Z,93.65
2016-09-04T08:05:10.497Z,93.27
2016-09-04T08:06:10.499Z,93.27
2016-09-04T08:07:10.476Z,93.17
2016-09-04T08:08:10.463Z,92.79
2016-09-04T08:09:10.483Z,93.12
2016-09-04T08:10:10.464Z,93.03
2016-09-04T08:11:10.461Z,92.98
2016-09-04T08:12:10.455Z,92.36
2016-09-04T08:13:10.440Z,92.84
2016-09-04T08:14:10.420Z,92.46
2016-09-04T08:15:10.427Z,92.22
2016-09-04T08:16:10.419Z,92.32
2016-09-04T08:17:10.403Z,92.32
2016-09-04T08:18:10.403Z,92.41
2016-09-04T08:19:10.403Z,92.41
2016-09-04T08:20:10.382Z,92.08
2016-09-04T08:21:10.367Z,92.22
2016-09-04T08:22:10.371Z,91.84
2016-09-04T08:23:10.354Z,91.98
2016-09-04T08:24:10.368Z,92.08
2016-09-04T08:25:10.354Z,91.74
2016-09-04T08:26:10.341Z,91.65
2016-09-04T08:27:10.321Z,91.65
2016-09-04T08:28:10.330Z,91.55
2016-09-04T08:29:10.322Z,91.55
2016-09-04T08:30:10.308Z,91.65
2016-09-04T08:31:10.285Z,91.17
2016-09-04T08:32:10.277Z,91.27
2016-09-04T08:33:10.278Z,91.36
2016-09-04T08:34:10.261Z,91.17
2016-09-04T08:35:10.263Z,91.41
2016-09-04T08:36:10.253Z,91.03
2016-09-04T08:37:10.250Z,91.13
2016-09-04T08:38:10.240Z,90.98
2016-09-04T08:39:10.230Z,90.22
2016-09-04T08:40:10.234Z,90.5
2016-09-04T08:41:10.203Z,90.46
2016-09-04T08:42:10.204Z,90.36
2016-09-04T08:43:10.211Z,90.17
2016-09-04T08:44:10.200Z,90.7
2016-09-04T08:45:10.180Z,90.59
2016-09-04T08:46:10.186Z,90.36
2016-09-04T08:47:10.178Z,90.41
2016-09-04T08:48:10.154Z,90.17
2016-09-04T08:49:10.162Z,90.12
2016-09-04T08:50:10.140Z,90.5
2016-09-04T08:51:10.133Z,89.88
2016-09-04T08:52:10.124Z,89.88
2016-09-04T08:53:10.113Z,90.11
2016-09-04T08:54:10.105Z,89.64
2016-09-04T08:55:10.109Z,89.78
2016-09-04T08:56:10.103Z,89.74
2016-09-04T08:57:10.102Z,89.79
2016-09-04T08:58:10.087Z,89.64
2016-09-04T08:59:10.084Z,89.69
2016-09-04T09:00:10.056Z,89.6
2016-09-04T09:01:10.054Z,89.79
2016-09-04T09:02:10.064Z,89.4
2016-09-04T09:03:10.057Z,89.31
2016-09-04T09:04:10.027Z,89.4
2016-09-04T09:05:10.021Z,89.26
2016-09-04T09:06:10.028Z,89.26
2016-09-04T09:07:10.010Z,89.17
2016-09-04T09:08:09.998Z,88.93
2016-09-04T09:09:10.012Z,89.03
2016-09-04T09:10:09.990Z,89.03
2016-09-04T09:11:09.984Z,89.36
2016-09-04T09:12:09.990Z,88.64
2016-09-04T09:13:09.966Z,88.74
2016-09-04T09:14:09.955Z,88.55
2016-09-04T09:15:09.945Z,88.69
2016-09-04T09:16:09.951Z,88.93
2016-09-04T09:17:09.943Z,88.84
2016-09-04T09:18:09.933Z,88.84
2016-09-04T09:19:09.929Z,88.74
2016-09-04T09:20:09.924Z,88.74
2016-09-04T09:21:09.922Z,88.4
2016-09-04T09:22:09.891Z,88.31
2016-09-04T09:23:09.887Z,88.78
2016-09-04T09:24:09.885Z,88.35
2016-09-04T09:25:09.892Z,88.78
2016-09-04T09:26:09.878Z,88.45
2016-09-04T09:27:09.870Z,88.26
2016-09-04T09:28:09.861Z,88.12
2016-09-04T09:29:09.862Z,88.07
2016-09-04T09:30:09.840Z,88.45
2016-09-04T09:31:09.839Z,88.45
2016-09-04T09:32:09.826Z,87.78
2016-09-04T09:33:09.833Z,87.4
2016-09-04T09:34:09.817Z,87.68
2016-09-04T09:35:09.804Z,87.68
2016-09-04T09:36:09.797Z,87.78
2016-09-04T09:37:09.799Z,87.4
2016-09-04T09:38:09.778Z,87.54
2016-09-04T09:39:09.776Z,87.54
2016-09-04T09:40:09.763Z,87.45
2016-09-04T09:41:09.759Z,87.26
2016-09-04T09:42:09.752Z,87.26
2016-09-04T09:43:09.742Z,87.45
2016-09-04T09:44:09.735Z,87.26
2016-09-04T09:45:09.747Z,87.07
2016-09-04T09:46:09.740Z,87.07
2016-09-04T09:47:09.720Z,86.98
2016-09-04T09:48:09.719Z,86.73
2016-09-04T09:49:09.700Z,87.25
2016-09-04T09:50:09.711Z,86.73
2016-09-04T09:51:09.686Z,86.96
2016-09-04T09:52:09.682Z,87.1
2016-09-04T09:53:09.684Z,87.15
2016-09-04T09:54:10.185Z,87.23
2016-09-04T09:55:09.679Z,86.51
2016-09-04T09:56:09.650Z,86.66
2016-09-04T09:57:09.671Z,86.61
2016-09-04T09:58:09.638Z,86.67
2016-09-04T09:59:09.652Z,86.1
2016-09-04T10:00:09.655Z,86.14
2016-09-04T10:01:09.634Z,86.14
2016-09-04T10:02:09.627Z,86.18
2016-09-04T10:03:09.644Z,86.08
2016-09-04T10:04:09.619Z,85.65
2016-09-04T10:05:09.596Z,85.8
2016-09-04T10:06:09.594Z,85.75
2016-09-04T10:07:09.589Z,85.94
2016-09-04T10:08:09.601Z,85.85
2016-09-04T10:09:09.577Z,85.77
2016-09-04T10:10:09.591Z,86.1
2016-09-04T10:11:09.577Z,85.85
2016-09-04T10:12:09.581Z,85.75
2016-09-04T10:13:09.559Z,85.52
2016-09-04T10:14:09.557Z,85.42
2016-09-04T10:15:09.560Z,85.29
2016-09-04T10:16:09.552Z,85.58
2016-09-04T10:17:09.547Z,85.48
2016-09-04T10:18:09.547Z,85.44
2016-09-04T10:19:09.519Z,85.44
2016-09-04T10:20:09.517Z,85.15
2016-09-04T10:21:09.524Z,85.29
2016-09-04T10:22:09.514Z,85.14
2016-09-04T10:23:09.510Z,84.91
2016-09-04T10:24:09.496Z,84.85
2016-09-04T10:25:09.497Z,84.91
2016-09-04T10:26:09.486Z,84.86
2016-09-04T10:27:09.492Z,85.05
2016-09-04T10:28:09.464Z,84.92
2016-09-04T10:29:09.467Z,84.58
2016-09-04T10:30:09.452Z,85.01
2016-09-04T10:31:09.468Z,85.11
2016-09-04T10:32:09.460Z,84.92
2016-09-04T10:33:09.436Z,84.77
2016-09-04T10:34:09.427Z,84.62
2016-09-04T10:35:09.435Z,84.77
2016-09-04T10:36:09.436Z,85.19
2016-09-04T10:37:09.422Z,85.05
2016-09-04T10:38:09.399Z,84.81
2016-09-04T10:39:09.395Z,84.58
2016-09-04T10:40:09.389Z,84.63
2016-09-04T10:41:09.402Z,84.53
2016-09-04T10:42:09.378Z,84.53
2016-09-04T10:43:09.382Z,84.63
2016-09-04T10:44:09.374Z,84.92
2016-09-04T10:45:09.382Z,84.72
2016-09-04T10:46:09.364Z,84.48
2016-09-04T10:47:09.365Z,84.86
2016-09-04T10:48:09.345Z,84.86
2016-09-04T10:49:09.351Z,84.77
2016-09-04T10:50:09.339Z,84.86
2016-09-04T10:51:09.342Z,84.62
2016-09-04T10:52:09.320Z,84.77
2016-09-04T10:53:09.328Z,85.19
2016-09-04T10:54:09.320Z,84.52
2016-09-04T10:55:09.291Z,84.48
2016-09-04T10:56:09.296Z,84.48
2016-09-04T10:57:09.290Z,84.53
2016-09-04T10:58:09.277Z,84.59
2016-09-04T10:59:09.290Z,84.78
2016-09-04T11:00:09.284Z,84.69
2016-09-04T11:01:09.268Z,84.69
2016-09-04T11:02:09.255Z,84.49
2016-09-04T11:03:09.241Z,84.49
2016-09-04T11:04:09.252Z,84.45
2016-09-04T11:05:09.244Z,84.83
2016-09-04T11:06:09.239Z,84.83
2016-09-04T11:07:09.223Z,84.88
2016-09-04T11:08:09.231Z,84.97
2016-09-04T11:09:09.215Z,84.97
2016-09-04T11:10:09.217Z,84.92
2016-09-04T11:11:09.210Z,84.72
2016-09-04T11:12:09.205Z,84.88
2016-09-04T11:13:09.196Z,84.92
2016-09-04T11:14:09.188Z,85.08
2016-09-04T11:15:09.183Z,85.08
2016-09-04T11:16:09.162Z,85.21
2016-09-04T11:17:09.166Z,85.21
2016-09-04T11:18:09.148Z,85.02
2016-09-04T11:19:09.141Z,85.12
2016-09-04T11:20:09.140Z,85.46
2016-09-04T11:21:09.124Z,85.17
2016-09-04T11:22:09.120Z,85.55
2016-09-04T11:23:09.105Z,85.36
2016-09-04T11:24:09.104Z,85.46
2016-09-04T11:25:09.099Z,85.5
2016-09-04T11:26:09.104Z,85.64
2016-09-04T11:27:09.077Z,85.55
2016-09-04T11:28:09.090Z,85.64
2016-09-04T11:29:09.086Z,85.55
2016-09-04T11:30:09.068Z,85.36
2016-09-04T11:31:09.070Z,85.36
2016-09-04T11:32:09.039Z,85.46
2016-09-04T11:33:09.053Z,85.46
2016-09-04T11:34:09.038Z,85.84
2016-09-04T11:35:09.024Z,85.64
2016-09-04T11:36:09.031Z,86.12
2016-09-04T11:37:09.007Z,85.74
2016-09-04T11:38:08.994Z,85.84
2016-09-04T11:39:08.992Z,85.84
2016-09-04T11:40:08.980Z,85.8
2016-09-04T11:41:08.977Z,85.89
2016-09-04T11:42:08.983Z,85.55
2016-09-04T11:43:08.967Z,85.99
2016-09-04T11:44:08.969Z,86.27
2016-09-04T11:45:08.939Z,86.27
2016-09-04T11:46:08.949Z,86.36
2016-09-04T11:47:08.927Z,86.27
2016-09-04T11:48:08.921Z,86.08
2016-09-04T11:49:08.926Z,86.7
2016-09-04T11:50:08.916Z,86.36
2016-09-04T11:51:08.895Z,86.51
2016-09-04T11:52:08.900Z,86.55
2016-09-04T11:53:08.878Z,86.65
2016-09-04T11:54:08.869Z,86.94
2016-09-04T11:55:08.859Z,86.55
2016-09-04T11:56:08.846Z,86.55
2016-09-04T11:57:08.858Z,86.6
2016-09-04T11:58:08.842Z,86.69
2016-09-04T11:59:08.843Z,87.65
2016-09-04T12:00:08.814Z,86.69
2016-09-04T12:01:08.820Z,87.27
2016-09-04T12:02:08.812Z,86.98
2016-09-04T12:03:08.802Z,86.93
2016-09-04T12:04:08.803Z,87.12
2016-09-04T12:05:08.781Z,87.21
2016-09-04T12:06:08.789Z,87.35
2016-09-04T12:07:08.790Z,86.88
2016-09-04T12:08:08.756Z,87.21
2016-09-04T12:09:08.741Z,87.54
2016-09-04T12:10:08.749Z,87.26
2016-09-04T12:11:08.743Z,87.12
2016-09-04T12:12:08.726Z,87.21
2016-09-04T12:13:08.720Z,86.98
2016-09-04T12:14:08.715Z,87.16
2016-09-04T12:15:08.721Z,87.21
2016-09-04T12:16:08.700Z,86.83
2016-09-04T12:17:08.694Z,87.4
2016-09-04T12:18:08.676Z,87.21
2016-09-04T12:19:08.678Z,87.36
2016-09-04T12:20:08.684Z,87.02
2016-09-04T12:21:08.655Z,87.17
2016-09-04T12:22:08.648Z,87.46
2016-09-04T12:23:08.656Z,87.36
2016-09-04T12:24:08.642Z,87.79
2016-09-04T12:25:08.642Z,87.7
2016-09-04T12:26:08.635Z,87.55
2016-09-04T12:27:08.634Z,87.17
2016-09-04T12:28:09.319Z,87.17
2016-09-04T12:29:08.611Z,87.55
2016-09-04T12:30:08.612Z,88.08
2016-09-04T12:31:08.596Z,88.08
2016-09-04T12:32:08.590Z,88.22
2016-09-04T12:33:08.581Z,88.03
2016-09-04T12:34:08.566Z,88.03
2016-09-04T12:35:08.567Z,87.98
2016-09-04T12:36:08.559Z,88.03
2016-09-04T12:37:08.549Z,88.27
2016-09-04T12:38:08.541Z,88.37
2016-09-04T12:39:08.522Z,88.18
2016-09-04T12:40:08.512Z,88.65
2016-09-04T12:41:08.513Z,88.03
2016-09-04T12:42:08.505Z,88.03
2016-09-04T12:43:08.509Z,88.41
2016-09-04T12:44:08.504Z,88.51
2016-09-04T12:45:08.486Z,88.79
2016-09-04T12:46:08.474Z,88.6
2016-09-04T12:47:08.467Z,88.6
2016-09-04T12:48:08.455Z,88.51
2016-09-04T12:49:08.467Z,88.6
2016-09-04T12:50:08.458Z,88.45
2016-09-04T12:51:08.440Z,88.51
2016-09-04T12:52:08.427Z,88.79
2016-09-04T12:53:08.411Z,88.7